Nearby METAR Reports

 

EGMC - Southend-On-Sea, United Kingdom
Distance from station: NE 10km
Updated: 15/08/2020 10:50
Mostly cloudy
Mostly cloudy
 Wind from N
Wind: N 5 mph , 7 km/h
Temperature: 20°C
Dew Point: 20°C
Humidity: 100%
Barometer: 1014 hPa
Clouds: Mostly cloudy
Visibility: 4 miles , 6 km
Cloud details: Few Clouds 91 m
Mostly cloudy 244 m
2020/08/15 09:50 EGMC 150950Z 36004KT 6000 FEW003 BKN008 20/20 Q1014
EGLC - London City Airp, United Kingdom
Distance from station: W 37km
Updated: 15/08/2020 10:50
Light rain, Thunderstorm
Light rain, Thunderstorm
 Wind from N
Wind: N 5 mph , 7 km/h
Temperature: 19°C
Dew Point: 18°C
Humidity: 94%
Barometer: 1015 hPa
Summary: Light rain
Clouds: Thunderstorm
Visibility: 4 miles , 7 km
Cloud details: Overcast 183 m
2020/08/15 09:50 EGLC 150950Z AUTO 36004KT 310V020 7000 -RA OVC006/// //////TCU 19/18 Q1015
EGKB - Biggin Hill, United Kingdom
Distance from station: WSW 45km
Updated: 15/08/2020 10:50
Fog, Overcast
Fog, Overcast
 Wind from NNW
Wind: NNW 6 mph , 9 km/h
Temperature: 17°C
Dew Point: 17°C
Humidity: 100%
Barometer: 1015 hPa
Summary: Fog
Clouds: Overcast
Visibility: 0 mile , 0 km
Cloud details: Overcast 61 m
2020/08/15 09:50 EGKB 150950Z 34005KT 310V010 0450 R21/P0750 FG OVC002 17/17 Q1015
 
EGSS - Stansted Airport, United Kingdom
Distance from station: NNW 48km
Updated: 15/08/2020 10:50
Mist, Thunderstorm
Mist, Thunderstorm
 Wind from N
Wind: N 10 mph , 17 km/h
Temperature: 17°C
Dew Point: 17°C
Humidity: 100%
Barometer: 1015 hPa
Summary: Mist
Clouds: Thunderstorm
Visibility: 2 miles , 3 km
Cloud details: Overcast 91 m
2020/08/15 09:50 EGSS 150950Z AUTO 01009KT 2500 BR OVC003/// //////TCU 17/17 Q1015
EGKK - London/Gatwick A, United Kingdom
Distance from station: SW 67km
Updated: 15/08/2020 10:50
Drizzle, Mist, Mostly cloudy
Drizzle, Mist, Mostly cloudy
 Wind from varies
Wind: varies 5 mph , 7 km/h
Temperature: 19°C
Dew Point: 18°C
Humidity: 94%
Barometer: 1015 hPa
Summary: Drizzle, Mist
Clouds: Mostly cloudy
Visibility: 2 miles , 3 km
Cloud details: Mostly cloudy 152 m
2020/08/15 09:50 EGKK 150950Z VRB04KT 2600 DZ BR BKN005 19/18 Q1015
EGMD - Lydd Airport, United Kingdom
Distance from station: SSE 67km
Updated: 15/08/2020 10:50
Mostly cloudy
Mostly cloudy
 Wind from varies
Wind: varies 3 mph , 6 km/h
Temperature: 21°C
Dew Point: 20°C
Humidity: 94%
Barometer: 1015 hPa
Clouds: Mostly cloudy
Visibility: 6 miles , 10 km
Cloud details: Partly cloudy 213 m
Partly cloudy 335 m
Mostly cloudy 610 m
2020/08/15 09:50 EGMD 150950Z VRB03KT 9999 SCT007 SCT011 BKN020 21/20 Q1015
 
EGWU - Northolt Raf, United Kingdom
Distance from station: W 69km
Updated: 15/08/2020 10:50
Mostly cloudy
Mostly cloudy
 Wind from NNE
Wind: NNE 8 mph , 13 km/h
Temperature: 18°C
Dew Point: 16°C
Humidity: 88%
Barometer: 1015 hPa
Clouds: Mostly cloudy
Visibility: 6 miles , 10 km
Cloud details: Mostly cloudy 213 m
Mostly cloudy 366 m
2020/08/15 09:50 EGWU 150950Z 03007KT 9999 BKN007 BKN012 18/16 Q1015 TEMPO 5000 -DZ BKN006 RMK GRN TEMPO YLO1
EGLL - London/Heathrow, United Kingdom
Distance from station: W 72km
Updated: 15/08/2020 10:50
Overcast
Overcast
 Wind from NE
Wind: NE 6 mph , 9 km/h
Temperature: 18°C
Dew Point: 16°C
Humidity: 88%
Barometer: 1015 hPa
Clouds: Overcast
Visibility: 6 miles , 10 km
Cloud details: Mostly cloudy 183 m
Overcast 305 m
2020/08/15 09:50 EGLL 150950Z AUTO 04005KT 360V080 9999 BKN006 OVC010 18/16 Q1015
EGUW - Wattisham Raf, United Kingdom
Distance from station: NNE 72km
Updated: 15/08/2020 09:50
Mist, Overcast
Mist, Overcast
 Wind from NE
Wind: NE 12 mph , 19 km/h
Temperature: 18°C
Dew Point: 18°C
Humidity: 100%
Barometer: 1015 hPa
Summary: Mist
Clouds: Overcast
Visibility: 1 mile , 1 km
Cloud details: Overcast 61 m
2020/08/15 08:50 EGUW 150850Z AUTO 04010KT 1400 BR OVC002/// 18/18 Q1015
 
EGGW - Luton Airport, United Kingdom
Distance from station: WNW 76km
Updated: 15/08/2020 10:50
Light drizzle, Thunderstorm
Light drizzle, Thunderstorm
 Wind from NNE
Wind: NNE 9 mph , 15 km/h
Temperature: 15°C
Dew Point: 15°C
Humidity: 100%
Barometer: 1016 hPa
Summary: Light Drizzle
Clouds: Thunderstorm
Visibility: 2 miles , 4 km
Cloud details: Overcast 91 m
2020/08/15 09:50 EGGW 150950Z AUTO 02008KT 4000 -DZ OVC003/// //////TCU 15/15 Q1016
EGSC - Cambridge, United Kingdom
Distance from station: NNW 81km
Updated: 15/08/2020 10:50
Rain, Overcast
Rain, Overcast
 Wind from NNE
Wind: NNE 8 mph , 13 km/h
Temperature: 17°C
Dew Point: 16°C
Humidity: 94%
Barometer: 1016 hPa
Summary: Rain
Clouds: Overcast
Visibility: 1 mile , 1 km
Cloud details: Overcast 61 m
2020/08/15 09:50 EGSC 150950Z 02007KT 1200 R05/P2000 RA OVC002 17/16 Q1016